Time;durP1;ratioP1;P1;durP2;ratioP2;P2;SDS_P1;SDS_P2;PMS_P1;PMS_P2;Temp;Humidity;BMP_temperature;BMP_pressure;BME280_temperature;BME280_humidity;BME280_pressure;Samples;Min_cycle;Max_cycle;Signal;HPM_P1;HPM_P2
2022/11/17 00:01:09;;;;;;;;;65.00;47.00;;;;;8.59;100.00;98088.56;6311381;20;3632610;-59
2022/11/17 00:03:39;;;;;;;;;67.67;50.00;;;;;8.63;100.00;98073.13;6314090;20;3645093;-60
2022/11/17 00:06:08;;;;;;;;;69.33;51.67;;;;;8.55;100.00;98076.41;6309860;20;3633685;-59
2022/11/17 00:08:37;;;;;;;;;64.33;51.00;;;;;8.56;100.00;98062.91;6315782;20;3625281;-59
2022/11/17 00:11:06;;;;;;;;;63.75;49.75;;;;;8.58;100.00;98068.13;6282553;20;3637761;-60
2022/11/17 00:16:24;;;;;;;;;69.00;49.33;;;;;8.64;100.00;98080.19;6308269;20;3656551;-60
2022/11/17 00:21:41;;;;;;;;;60.00;46.33;;;;;8.54;100.00;98090.75;6276585;20;3627432;-60
2022/11/17 00:24:15;;;;;;;;;69.50;50.00;;;;;8.55;100.00;98097.81;6313031;20;3643076;-58
2022/11/17 00:27:00;;;;;;;;;66.00;48.00;;;;;8.51;100.00;98102.56;6310282;20;3646108;-58
2022/11/17 00:29:30;;;;;;;;;70.00;50.67;;;;;8.44;100.00;98101.31;6312210;20;3645038;-60
2022/11/17 00:34:48;;;;;;;;;66.00;49.00;;;;;8.46;100.00;98109.25;6312160;20;3636734;-60
2022/11/17 00:37:17;;;;;;;;;65.33;49.33;;;;;8.43;100.00;98096.13;6305472;20;3631517;-60
2022/11/17 00:39:46;;;;;;;;;60.33;48.67;;;;;8.48;100.00;98096.59;6312859;20;3621077;-60
2022/11/17 00:42:15;;;;;;;;;62.67;49.00;;;;;8.40;100.00;98091.84;6278992;20;3631469;-59
2022/11/17 00:44:45;;;;;;;;;62.00;49.00;;;;;8.36;100.00;98085.00;6312208;20;3627317;-60
2022/11/17 00:47:14;;;;;;;;;63.00;48.33;;;;;8.47;100.00;98093.06;6309774;20;3625231;-60
2022/11/17 00:49:44;;;;;;;;;67.33;50.67;;;;;8.42;100.00;98094.38;6311820;20;3638836;-60
2022/11/17 00:52:13;;;;;;;;;68.67;51.67;;;;;8.43;100.00;98096.97;6308319;20;3640019;-60
2022/11/17 00:54:43;;;;;;;;;66.00;50.00;;;;;8.52;100.00;98098.03;6313021;20;3637779;-60
2022/11/17 00:57:12;;;;;;;;;65.67;49.67;;;;;8.35;100.00;98089.50;6308687;20;3635086;-60
2022/11/17 00:59:42;;;;;;;;;61.33;49.33;;;;;8.56;100.00;98097.69;6274981;20;3619157;-60
2022/11/17 01:02:11;;;;;;;;;68.00;50.33;;;;;8.47;100.00;98098.41;6308729;20;3645107;-59
2022/11/17 01:04:41;;;;;;;;;64.00;49.33;;;;;8.46;100.00;98083.34;6310671;20;3627496;-60
2022/11/17 01:07:10;;;;;;;;;66.33;49.33;;;;;8.43;100.00;98083.59;6307924;20;3644100;-60
2022/11/17 01:09:40;;;;;;;;;58.67;49.67;;;;;8.31;100.00;98089.84;6276839;20;2873320;-60
2022/11/17 01:12:09;;;;;;;;;65.67;48.67;;;;;8.40;100.00;98082.94;6307452;20;3636722;-60
2022/11/17 01:14:39;;;;;;;;;57.67;45.33;;;;;8.43;100.00;98080.06;6305517;20;3625385;-60
2022/11/17 01:17:08;;;;;;;;;64.00;48.00;;;;;8.40;100.00;98073.13;6309345;20;3644006;-59
2022/11/17 01:19:38;;;;;;;;;66.67;49.67;;;;;8.51;100.00;98070.47;6276890;20;3657716;-60
2022/11/17 01:22:07;;;;;;;;;67.00;49.33;;;;;8.35;100.00;98072.59;6274570;20;3649243;-60
2022/11/17 01:24:37;;;;;;;;;59.33;49.00;;;;;8.49;100.00;98076.91;6310203;20;3618078;-60
2022/11/17 01:27:07;;;;;;;;;60.33;46.33;;;;;8.47;100.00;98082.34;6309691;20;2878506;-60
2022/11/17 01:29:35;;;;;;;;;63.00;50.00;;;;;8.43;100.00;98075.56;6312896;20;3617935;-60
2022/11/17 01:32:05;;;;;;;;;65.00;49.00;;;;;8.54;100.00;98067.53;6275836;20;3633590;-60
2022/11/17 01:34:34;;;;;;;;;60.00;47.67;;;;;8.42;100.00;98056.94;6308718;20;3609748;-60
2022/11/17 01:37:19;;;;;;;;;65.00;50.00;;;;;8.53;100.00;98049.78;6308782;20;3632622;-60
2022/11/17 01:39:49;;;;;;;;;66.00;50.33;;;;;8.52;100.00;98049.91;6308526;20;3623169;-60
2022/11/17 01:42:26;;;;;;;;;65.33;48.33;;;;;8.43;100.00;98042.63;6307277;20;3641927;-60
2022/11/17 01:45:18;;;;;;;;;66.33;51.33;;;;;8.49;100.00;98050.16;6310036;20;3638766;-60
2022/11/17 01:47:56;;;;;;;;;62.33;50.00;;;;;8.32;100.00;98046.09;6307381;20;3631509;-59
2022/11/17 01:50:29;;;;;;;;;68.00;50.33;;;;;8.50;100.00;98041.97;6280253;20;3645017;-60
2022/11/17 01:53:05;;;;;;;;;65.00;51.00;;;;;8.44;100.00;98042.47;6280656;20;3626306;-60
2022/11/17 01:55:58;;;;;;;;;66.67;51.00;;;;;8.31;100.00;98036.38;6310600;20;3638816;-60
2022/11/17 01:58:38;;;;;;;;;70.33;49.00;;;;;8.31;100.00;98042.56;6312806;20;3655498;-60
2022/11/17 02:01:08;;;;;;;;;66.33;50.33;;;;;8.46;100.00;98040.53;6282855;20;3636728;-60
2022/11/17 02:03:39;;;;;;;;;62.33;48.00;;;;;8.42;100.00;98039.06;6313096;20;3620066;-60
2022/11/17 02:06:28;;;;;;;;;62.67;48.00;;;;;8.50;100.00;98046.50;6308770;20;3640888;-60
2022/11/17 02:09:01;;;;;;;;;63.33;47.67;;;;;8.44;100.00;98057.69;6311838;20;3653365;-60
2022/11/17 02:11:34;;;;;;;;;59.00;42.00;;;;;8.30;100.00;98059.59;6280130;20;3638781;-60
2022/11/17 02:14:04;;;;;;;;;57.00;42.67;;;;;8.37;100.00;98059.94;6312690;20;3618175;-60
2022/11/17 02:16:34;;;;;;;;;61.00;46.00;;;;;8.30;100.00;98056.91;6311026;20;3639888;-60
2022/11/17 02:19:04;;;;;;;;;62.67;46.00;;;;;8.36;100.00;98056.44;6313707;20;3636743;-60
2022/11/17 02:22:19;;;;;;;;;59.67;46.67;;;;;8.30;100.00;98062.25;6311840;20;3629540;-60
2022/11/17 02:25:34;;;;;;;;;59.33;41.00;;;;;8.25;100.00;98068.94;6314442;20;3618173;-60
2022/11/17 02:28:36;;;;;;;;;55.00;43.33;;;;;8.34;100.00;98073.56;6309707;20;2869431;-60
2022/11/17 02:31:36;;;;;;;;;59.00;43.67;;;;;8.35;100.00;98077.97;6311838;20;3625248;-60
2022/11/17 02:34:28;;;;;;;;;56.67;43.00;;;;;8.45;100.00;98083.44;6312949;20;3620079;-60
2022/11/17 02:37:09;;;;;;;;;55.67;40.00;;;;;8.39;100.00;98071.41;6310012;20;2864049;-60
2022/11/17 02:39:53;;;;;;;;;56.33;43.00;;;;;8.28;100.00;98069.53;6312768;20;3613797;-59
2022/11/17 02:45:59;;;;;;;;;55.00;43.00;;;;;8.27;100.00;98053.66;6311245;20;3609617;-60
2022/11/17 02:48:58;;;;;;;;;52.33;41.00;;;;;8.17;100.00;98053.50;6311901;20;2855579;-60
2022/11/17 02:51:28;;;;;;;;;53.33;43.00;;;;;8.28;100.00;98058.00;6315794;20;3604431;-60
2022/11/17 02:53:58;;;;;;;;;53.67;42.33;;;;;8.40;100.00;98059.75;6276975;20;2860816;-60
2022/11/17 02:56:28;;;;;;;;;54.67;42.67;;;;;8.48;100.00;98049.31;6305734;20;2867020;-60
2022/11/17 02:59:01;;;;;;;;;55.67;42.33;;;;;8.40;100.00;98050.88;6307502;20;3627329;-60
2022/11/17 03:01:51;;;;;;;;;60.00;44.00;;;;;8.36;100.00;98047.56;6307729;20;3649261;-60
2022/11/17 03:04:39;;;;;;;;;49.50;38.50;;;;;8.41;100.00;98041.88;6277005;20;2871205;-60
2022/11/17 03:08:04;;;;;;;;;50.67;37.00;;;;;8.33;100.00;98045.13;6279609;20;3607683;-60
2022/11/17 03:11:07;;;;;;;;;48.67;39.00;;;;;8.30;100.00;98046.22;6281212;20;2856690;-59
2022/11/17 03:13:57;;;;;;;;;47.67;39.00;;;;;8.28;100.00;98053.50;6305755;20;2852388;-59
2022/11/17 03:16:37;;;;;;;;;54.67;43.00;;;;;8.29;100.00;98052.56;6310511;20;2868232;-59
2022/11/17 03:19:17;;;;;;;;;43.67;37.00;;;;;8.25;100.00;98044.88;6314717;20;3599215;-60
2022/11/17 03:21:55;;;;;;;;;53.00;42.00;;;;;8.19;100.00;98035.53;6281117;20;2865967;-59
2022/11/17 03:24:44;;;;;;;;;44.50;39.50;;;;;8.19;100.00;98023.97;6315338;20;2852447;-60
2022/11/17 03:27:34;;;;;;;;;54.67;42.67;;;;;8.05;100.00;98019.69;6276903;20;2869106;-60
2022/11/17 03:30:08;;;;;;;;;54.67;43.33;;;;;8.03;100.00;98022.50;6309743;20;3601355;-60
2022/11/17 03:32:43;;;;;;;;;60.00;43.33;;;;;8.11;100.00;98025.44;6310078;20;3634621;-60
2022/11/17 03:35:19;;;;;;;;;59.00;43.33;;;;;8.18;100.00;98032.97;6310311;20;3630538;-60
2022/11/17 03:38:00;;;;;;;;;54.67;43.00;;;;;8.17;100.00;98039.28;6305045;20;2853540;-60
2022/11/17 03:40:34;;;;;;;;;63.33;46.00;;;;;8.21;100.00;98035.38;6309653;20;3633614;-60
2022/11/17 03:43:07;;;;;;;;;56.00;45.33;;;;;8.25;100.00;98027.00;6310320;20;2857725;-60
2022/11/17 03:45:50;;;;;;;;;47.33;39.00;;;;;8.24;100.00;98029.78;6310712;20;2860759;-60
2022/11/17 03:48:43;;;;;;;;;40.67;36.33;;;;;8.22;100.00;98037.09;6314699;20;3593996;-60
2022/11/17 03:51:23;;;;;;;;;53.67;42.67;;;;;8.21;100.00;98027.38;6276956;20;2865031;-60
2022/11/17 03:53:53;;;;;;;;;59.00;44.00;;;;;8.11;100.00;98041.47;6307051;20;2885797;-60
2022/11/17 03:57:22;;;;;;;;;61.67;46.00;;;;;8.09;100.00;98040.72;6307402;20;3635792;-59
2022/11/17 03:59:59;;;;;;;;;57.00;43.00;;;;;7.97;100.00;98028.31;6310429;20;3622137;-60
2022/11/17 04:02:28;;;;;;;;;53.67;43.67;;;;;8.02;100.00;98023.47;6309246;20;2862887;-60
2022/11/17 04:05:07;;;;;;;;;57.00;46.00;;;;;7.93;100.00;98026.88;6310305;20;2860797;-60
2022/11/17 04:07:46;;;;;;;;;55.00;43.00;;;;;7.73;100.00;98035.56;6315891;20;2864906;-59
2022/11/17 04:10:24;;;;;;;;;60.33;45.33;;;;;7.59;100.00;98034.78;6312719;20;3645049;-60
2022/11/17 04:15:57;;;;;;;;;57.00;42.33;;;;;7.66;100.00;98052.06;6313908;20;3613752;-60
2022/11/17 04:18:27;;;;;;;;;56.67;44.67;;;;;7.73;100.00;98051.59;6281094;20;3609718;-60
2022/11/17 04:20:57;;;;;;;;;57.67;43.67;;;;;7.58;100.00;98049.13;6312159;20;2864931;-60
2022/11/17 04:23:27;;;;;;;;;58.00;43.33;;;;;7.56;100.00;98045.72;6311759;20;3607573;-60
2022/11/17 04:28:49;;;;;;;;;70.67;53.00;;;;;7.41;100.00;98058.38;6276792;20;3621139;-60
2022/11/17 04:31:24;;;;;;;;;86.75;65.50;;;;;7.47;100.00;98062.41;6315005;20;4419031;-60
2022/11/17 04:34:03;;;;;;;;;85.75;67.75;;;;;7.22;100.00;98066.06;6310165;20;4411749;-60
2022/11/17 04:36:44;;;;;;;;;75.00;55.75;;;;;7.31;100.00;98054.69;6312329;20;3643162;-60
2022/11/17 04:39:15;;;;;;;;;68.33;53.33;;;;;7.36;100.00;98062.38;6310191;20;3628375;-60
2022/11/17 04:41:56;;;;;;;;;70.00;55.00;;;;;7.43;100.00;98063.63;6311857;20;3625442;-60
2022/11/17 04:44:29;;;;;;;;;68.00;51.75;;;;;7.41;100.00;98057.53;6311803;20;4393107;-60
2022/11/17 04:47:02;;;;;;;;;70.67;52.67;;;;;7.40;100.00;98051.34;6307719;20;3630552;-60
2022/11/17 04:49:32;;;;;;;;;72.33;57.33;;;;;7.51;100.00;98061.22;6277975;20;3607538;-60
2022/11/17 04:52:02;;;;;;;;;77.67;57.67;;;;;7.40;100.00;98066.53;6308482;20;3632650;-59
2022/11/17 04:54:31;;;;;;;;;71.25;53.25;;;;;7.45;100.00;98051.00;6307752;20;3648267;-60
2022/11/17 04:57:01;;;;;;;;;66.67;50.33;;;;;7.58;100.00;98080.28;6306470;20;3646055;-60
2022/11/17 04:59:30;;;;;;;;;63.00;49.00;;;;;7.53;100.00;98074.44;6306987;20;3504448;-61
2022/11/17 05:02:00;;;;;;;;;57.67;46.00;;;;;7.55;100.00;98073.38;6307299;20;2867057;-60
2022/11/17 05:07:23;;;;;;;;;64.00;45.33;;;;;7.51;100.00;98066.56;6310760;20;3638787;-60
2022/11/17 05:09:52;;;;;;;;;64.67;49.67;;;;;7.41;100.00;98062.88;6307660;20;3632637;-60
2022/11/17 05:15:10;;;;;;;;;70.67;54.33;;;;;7.50;100.00;98075.53;6277362;20;3635080;-59
2022/11/17 05:17:38;;;;;;;;;66.67;51.33;;;;;7.54;100.00;98079.69;6309878;20;3633598;-60
2022/11/17 05:20:09;;;;;;;;;71.00;52.67;;;;;7.53;100.00;98080.66;6279217;20;3639846;-60
2022/11/17 05:25:33;;;;;;;;;68.67;48.00;;;;;7.41;100.00;98084.25;6315869;20;3644049;-60
2022/11/17 05:28:03;;;;;;;;;69.67;50.00;;;;;7.39;100.00;98070.16;6281684;20;3636724;-60
2022/11/17 05:30:32;;;;;;;;;55.00;43.67;;;;;7.53;100.00;98086.00;6315723;20;3608624;-60
2022/11/17 05:33:02;;;;;;;;;70.67;53.33;;;;;7.58;100.00;98091.84;6313197;20;3642956;-60
2022/11/17 05:35:31;;;;;;;;;68.67;52.00;;;;;7.66;100.00;98089.47;6283717;20;3633581;-60
2022/11/17 05:38:01;;;;;;;;;67.33;51.00;;;;;7.46;100.00;98098.09;6314289;20;3642926;-60
2022/11/17 05:40:30;;;;;;;;;65.33;50.33;;;;;7.54;100.00;98095.72;6314822;20;3633689;-60
2022/11/17 05:43:00;;;;;;;;;66.67;51.00;;;;;7.47;100.00;98102.47;6314158;20;3624260;-60
2022/11/17 05:45:29;;;;;;;;;70.00;53.00;;;;;7.51;100.00;98095.94;6313802;20;3628460;-59
2022/11/17 05:47:59;;;;;;;;;75.33;52.33;;;;;7.48;100.00;98106.84;6314417;20;3662768;-60
2022/11/17 05:50:28;;;;;;;;;70.67;52.67;;;;;7.54;100.00;98117.06;6279953;20;3640869;-60
2022/11/17 05:52:58;;;;;;;;;68.33;52.00;;;;;7.46;100.00;98119.47;6309656;20;3624186;-59
2022/11/17 05:55:27;;;;;;;;;65.33;49.67;;;;;7.45;100.00;98107.94;6313400;20;3620225;-60
2022/11/17 05:58:26;;;;;;;;;62.00;49.00;;;;;7.42;100.00;98117.97;6311846;20;3619034;-60
2022/11/17 06:00:57;;;;;;;;;63.00;50.67;;;;;7.42;100.00;98113.47;6307419;20;3614838;-59
2022/11/17 06:03:36;;;;;;;;;66.33;49.33;;;;;7.53;100.00;98118.06;6312504;20;3636739;-60
2022/11/17 06:06:08;;;;;;;;;68.00;51.33;;;;;7.60;100.00;98116.59;6312382;20;3645109;-60
2022/11/17 06:08:38;;;;;;;;;65.00;49.00;;;;;7.53;100.00;98115.38;6282892;20;3634646;-60
2022/11/17 06:11:07;;;;;;;;;69.33;53.00;;;;;7.61;100.00;98113.00;6312976;20;3641942;-60
2022/11/17 06:13:37;;;;;;;;;66.67;47.67;;;;;7.68;100.00;98113.38;6313912;20;3649247;-60
2022/11/17 06:16:10;;;;;;;;;62.00;50.00;;;;;7.56;100.00;98115.16;6312926;20;2841984;-60
2022/11/17 06:18:50;;;;;;;;;73.67;55.00;;;;;7.65;100.00;98114.44;6280626;20;3630511;-59
2022/11/17 06:21:19;;;;;;;;;75.67;56.67;;;;;7.63;100.00;98120.88;6316349;20;3636773;-59
2022/11/17 06:23:49;;;;;;;;;76.33;57.33;;;;;7.63;100.00;98116.38;6277333;20;3632553;-59
2022/11/17 06:26:19;;;;;;;;;72.33;55.67;;;;;7.65;100.00;98114.44;6313950;20;3624223;-59
2022/11/17 06:28:50;;;;;;;;;74.67;56.00;;;;;7.67;100.00;98117.00;6281490;20;3629499;-59
2022/11/17 06:31:19;;;;;;;;;69.67;53.33;;;;;7.69;100.00;98118.59;6316759;20;3621097;-59
2022/11/17 06:33:49;;;;;;;;;72.00;53.67;;;;;7.82;100.00;98115.00;6280949;20;3626291;-59
2022/11/17 06:36:18;;;;;;;;;76.67;57.33;;;;;7.84;100.00;98129.09;6311682;20;3643022;-59
2022/11/17 06:38:47;;;;;;;;;74.67;57.67;;;;;7.79;100.00;98131.25;6315734;20;3623313;-60
2022/11/17 06:41:17;;;;;;;;;78.25;59.00;;;;;7.76;100.00;98134.16;6283547;20;3657756;-59
2022/11/17 06:43:46;;;;;;;;;79.67;59.00;;;;;7.67;100.00;98133.03;6311486;20;3662785;-59
2022/11/17 06:46:16;;;;;;;;;76.33;58.33;;;;;7.67;100.00;98128.53;6279779;20;3632596;-58
2022/11/17 06:48:45;;;;;;;;;82.00;59.67;;;;;7.90;100.00;98139.34;6315636;20;3657701;-58
2022/11/17 06:51:15;;;;;;;;;79.33;58.00;;;;;7.90;100.00;98144.69;6277385;20;3656593;-58
2022/11/17 06:53:45;;;;;;;;;77.67;54.00;;;;;7.93;100.00;98141.78;6277157;20;3658677;-58
2022/11/17 06:56:16;;;;;;;;;76.33;57.00;;;;;8.09;100.00;98134.28;6279415;20;3649235;-58
2022/11/17 06:58:45;;;;;;;;;73.33;54.00;;;;;8.05;100.00;98134.63;6279850;20;3619425;-58
2022/11/17 07:01:15;;;;;;;;;74.00;56.00;;;;;8.22;100.00;98136.88;6313437;20;3619128;-58
2022/11/17 07:03:44;;;;;;;;;70.00;55.50;;;;;8.26;100.00;98135.66;6282113;20;2857741;-58
2022/11/17 07:06:15;;;;;;;;;69.33;52.00;;;;;8.21;100.00;98143.16;6310265;20;3621248;-58
2022/11/17 07:08:45;;;;;;;;;71.67;52.00;;;;;8.19;100.00;98144.25;6311652;20;3637786;-58
2022/11/17 07:11:16;;;;;;;;;67.67;49.00;;;;;8.31;100.00;98144.16;6278338;20;3645180;-58
2022/11/17 07:13:45;;;;;;;;;68.33;52.00;;;;;8.11;100.00;98148.41;6311447;20;3622240;-58
2022/11/17 07:16:19;;;;;;;;;62.00;46.33;;;;;8.02;100.00;98150.91;6311787;20;3617058;-59
2022/11/17 07:18:52;;;;;;;;;61.67;47.33;;;;;8.30;100.00;98155.84;6310104;20;3627409;-58
2022/11/17 07:21:22;;;;;;;;;60.67;48.00;;;;;8.50;100.00;98158.81;6311267;20;3622144;-58
2022/11/17 07:23:51;;;;;;;;;56.00;45.00;;;;;8.41;100.00;98163.06;6311615;20;3614855;-58
2022/11/17 07:26:21;;;;;;;;;64.00;48.00;;;;;8.45;100.00;98169.91;6313966;20;3626278;-58
2022/11/17 07:28:50;;;;;;;;;62.00;44.00;;;;;8.13;100.00;98166.97;6313486;20;3641897;-58
2022/11/17 07:31:20;;;;;;;;;61.67;49.67;;;;;8.15;100.00;98170.38;6313747;20;2871204;-58
2022/11/17 07:33:52;;;;;;;;;52.33;42.00;;;;;8.56;100.00;98167.25;6307933;20;2852485;-58
2022/11/17 07:36:22;;;;;;;;;62.33;46.00;;;;;8.50;100.00;98162.34;6310574;20;3634663;-58
2022/11/17 07:38:51;;;;;;;;;58.67;45.67;;;;;8.52;100.00;98168.44;6313443;20;3634654;-58
2022/11/17 07:41:21;;;;;;;;;64.33;49.00;;;;;8.67;100.00;98165.56;6277325;20;3630426;-58
2022/11/17 07:43:50;;;;;;;;;60.67;46.33;;;;;8.63;100.00;98170.28;6313819;20;3635765;-58
2022/11/17 07:46:20;;;;;;;;;58.33;46.67;;;;;8.92;100.00;98162.63;6273137;20;3626284;-58
2022/11/17 07:48:53;;;;;;;;;55.67;45.67;;;;;8.94;100.00;98157.16;6312214;20;3622122;-59
2022/11/17 07:51:23;;;;;;;;;59.33;47.00;;;;;8.96;100.00;98160.59;6310219;20;3634730;-59
2022/11/17 07:53:53;;;;;;;;;55.33;43.67;;;;;8.99;100.00;98160.34;6310751;20;2880306;-58
2022/11/17 07:56:23;;;;;;;;;56.00;45.50;;;;;9.26;100.00;98149.22;6309096;20;2823404;-57
2022/11/17 07:58:53;;;;;;;;;52.00;43.00;;;;;9.41;100.00;98156.03;6312131;20;3619087;-56
2022/11/17 08:01:26;;;;;;;;;58.33;44.67;;;;;9.52;100.00;98148.94;6309952;20;3634714;-58
2022/11/17 08:03:56;;;;;;;;;54.33;43.33;;;;;9.56;100.00;98155.75;6273860;20;3616955;-58
2022/11/17 08:06:26;;;;;;;;;54.67;43.00;;;;;9.31;100.00;98146.19;6310920;20;3610695;-58
2022/11/17 08:08:55;;;;;;;;;58.67;44.00;;;;;9.31;100.00;98155.06;6305688;20;3629509;-58
2022/11/17 08:11:25;;;;;;;;;67.00;48.00;;;;;8.98;100.00;98164.84;6313891;20;3642990;-58
2022/11/17 08:13:55;;;;;;;;;58.67;46.00;;;;;8.73;100.00;98162.38;6313356;20;3625257;-58
2022/11/17 08:16:29;;;;;;;;;48.33;37.00;;;;;8.82;100.00;98164.34;6310915;20;2874258;-56
2022/11/17 08:18:59;;;;;;;;;52.33;43.33;;;;;8.76;100.00;98172.84;6310776;20;3596171;-58
2022/11/17 08:21:28;;;;;;;;;58.00;44.67;;;;;8.71;100.00;98169.69;6315061;20;3631554;-58
2022/11/17 08:23:59;;;;;;;;;58.33;40.67;;;;;8.74;100.00;98166.75;6315951;20;3632689;-58
2022/11/17 08:26:28;;;;;;;;;55.00;42.33;;;;;8.66;100.00;98166.50;6314285;20;3620100;-58
2022/11/17 08:29:00;;;;;;;;;60.00;43.00;;;;;8.38;100.00;98171.31;6314430;20;3645109;-58
2022/11/17 08:31:29;;;;;;;;;53.00;43.00;;;;;8.81;100.00;98173.34;6311506;20;2861846;-58
2022/11/17 08:33:59;;;;;;;;;59.67;47.67;;;;;9.05;100.00;98183.94;6281733;20;3610656;-57
2022/11/17 08:36:28;;;;;;;;;53.33;44.33;;;;;9.05;100.00;98185.75;6313092;20;3614869;-58
2022/11/17 08:38:58;;;;;;;;;57.33;45.00;;;;;9.09;100.00;98197.94;6313063;20;3620139;-57
2022/11/17 08:41:27;;;;;;;;;56.67;43.33;;;;;9.39;100.00;98198.16;6313948;20;3619034;-58
2022/11/17 08:43:57;;;;;;;;;55.67;44.00;;;;;9.95;100.00;98201.66;6314170;20;2866188;-58
2022/11/17 08:46:26;;;;;;;;;56.33;44.00;;;;;10.28;100.00;98209.63;6312542;20;3621120;-57
2022/11/17 08:48:56;;;;;;;;;53.67;45.00;;;;;10.31;100.00;98211.19;6311737;20;3609722;-58
2022/11/17 08:51:26;;;;;;;;;53.67;41.00;;;;;10.12;100.00;98214.53;6313316;20;3609621;-57
2022/11/17 08:53:57;;;;;;;;;58.33;45.00;;;;;10.43;100.00;98223.59;6278030;20;3623296;-56
2022/11/17 08:56:27;;;;;;;;;56.67;41.00;;;;;10.60;100.00;98219.44;6308190;20;3637806;-56
2022/11/17 08:58:56;;;;;;;;;64.00;52.00;;;;;10.59;100.00;98225.81;6319777;20;3608624;-57
2022/11/17 09:01:25;;;;;;;;;54.33;40.33;;;;;10.51;100.00;98223.78;6286585;20;3632696;-58
2022/11/17 09:03:54;;;;;;;;;49.33;39.00;;;;;9.83;100.00;98228.53;6318945;20;3599405;-57
2022/11/17 09:06:24;;;;;;;;;51.00;38.67;;;;;9.78;100.00;98233.41;6286906;20;3620154;-57
2022/11/17 09:08:54;;;;;;;;;41.50;30.00;;;;;10.16;100.00;98233.91;6318676;20;2845089;-58
2022/11/17 09:11:24;;;;;;;;;54.00;41.00;;;;;10.14;100.00;98239.41;6289280;20;3614850;-59
2022/11/17 09:13:54;;;;;;;;;52.67;43.33;;;;;10.07;100.00;98243.56;6319756;20;3608591;-58
2022/11/17 09:16:24;;;;;;;;;55.33;42.00;;;;;10.09;100.00;98246.97;6316306;20;3623165;-59
2022/11/17 09:18:57;;;;;;;;;53.00;40.33;;;;;9.92;100.00;98234.09;6320582;20;3617985;-58
2022/11/17 09:21:26;;;;;;;;;54.00;42.00;;;;;10.27;100.00;98229.38;6288714;20;3599375;-59
2022/11/17 09:23:55;;;;;;;;;47.00;39.50;;;;;10.03;100.00;98231.38;6285944;20;2835684;-58
2022/11/17 09:26:25;;;;;;;;;48.33;40.00;;;;;10.41;100.00;98227.38;6288485;20;2851322;-57
2022/11/17 09:28:59;;;;;;;;;52.67;41.00;;;;;10.37;100.00;98234.81;6315523;20;3605565;-58
2022/11/17 09:31:29;;;;;;;;;51.67;40.33;;;;;10.30;100.00;98233.66;6317504;20;3609653;-59
2022/11/17 09:33:58;;;;;;;;;52.67;41.00;;;;;10.37;100.00;98231.28;6317869;20;3620086;-58
2022/11/17 09:36:33;;;;;;;;;52.33;40.00;;;;;10.01;100.00;98218.13;6284543;20;3598182;-58
2022/11/17 09:39:03;;;;;;;;;52.00;40.00;;;;;9.90;100.00;98215.47;6320286;20;3606654;-58
2022/11/17 09:41:45;;;;;;;;;54.33;41.00;;;;;10.12;100.00;98214.53;6285856;20;3606509;-58
2022/11/17 09:44:38;;;;;;;;;47.33;38.33;;;;;10.04;100.00;98212.50;6316489;20;3601299;-59
2022/11/17 09:47:34;;;;;;;;;49.33;39.00;;;;;10.17;100.00;98215.00;6319250;20;3611789;-58
2022/11/17 09:50:31;;;;;;;;;50.67;39.33;;;;;10.45;100.00;98216.25;6286003;20;2867112;-59
2022/11/17 09:53:29;;;;;;;;;50.00;35.67;;;;;10.27;100.00;98220.47;6310607;20;3600285;-57
2022/11/17 09:56:07;;;;;;;;;47.50;37.00;;;;;10.31;100.00;98220.09;6315466;20;3472241;-58
2022/11/17 09:59:05;;;;;;;;;47.00;35.00;;;;;10.51;100.00;98223.78;6313862;20;2858619;-59
2022/11/17 10:01:34;;;;;;;;;49.00;37.00;;;;;10.84;100.00;98231.75;6288241;20;3607651;-58
2022/11/17 10:04:08;;;;;;;;;35.00;31.00;;;;;10.58;100.00;98221.41;6283036;20;2846115;-59
2022/11/17 10:06:37;;;;;;;;;42.00;34.50;;;;;10.77;100.00;98216.19;6283579;20;2844071;-58
2022/11/17 10:09:34;;;;;;;;;38.33;33.67;;;;;10.50;100.00;98218.53;6286119;20;3597165;-59
2022/11/17 10:12:25;;;;;;;;;40.00;32.33;;;;;10.54;100.00;98212.78;6285612;20;3636741;-59
2022/11/17 10:14:55;;;;;;;;;41.67;34.00;;;;;10.61;100.00;98213.13;6317386;20;3601392;-59
2022/11/17 10:17:24;;;;;;;;;35.33;28.33;;;;;10.80;100.00;98209.69;6281537;20;3603470;-58
2022/11/17 10:19:53;;;;;;;;;46.33;34.33;;;;;10.79;100.00;98212.50;6317746;20;3612745;-59
2022/11/17 10:22:43;;;;;;;;;34.00;32.00;;;;;10.91;100.00;98200.72;6285258;20;3609647;-58
2022/11/17 10:25:47;;;;;;;;;39.67;32.00;;;;;10.82;100.00;98207.75;6314800;20;3600244;-59
2022/11/17 10:28:42;;;;;;;;;36.00;31.00;;;;;10.40;99.67;98201.50;6288408;20;3603498;-59
2022/11/17 10:31:19;;;;;;;;;37.00;32.00;;;;;10.72;99.45;98202.31;6285782;20;3610660;-59
2022/11/17 10:33:50;;;;;;;;;39.33;33.00;;;;;10.77;98.20;98200.06;6318851;20;3604510;-59
2022/11/17 10:36:28;;;;;;;;;39.33;31.00;;;;;11.52;97.45;98198.00;6289478;20;3619138;-58
2022/11/17 10:38:59;;;;;;;;;33.00;30.00;;;;;11.51;94.96;98192.78;6285772;20;2662354;-58
2022/11/17 10:41:44;;;;;;;;;34.67;30.67;;;;;11.45;96.29;98199.50;6285137;20;3609687;-58
2022/11/17 10:44:26;;;;;;;;;36.33;31.33;;;;;10.81;96.64;98206.03;6317203;20;3617950;-56
2022/11/17 10:47:03;;;;;;;;;28.00;26.00;;;;;10.76;97.53;98219.84;6281857;20;2843080;-58
2022/11/17 10:49:36;;;;;;;;;31.67;27.67;;;;;10.77;96.41;98218.88;6317292;20;3597134;-57
2022/11/17 10:52:17;;;;;;;;;35.67;30.33;;;;;10.87;96.63;98218.06;6282555;20;3621079;-57
2022/11/17 10:54:46;;;;;;;;;33.67;30.67;;;;;11.28;96.65;98219.00;6316830;20;3596107;-58
2022/11/17 10:57:25;;;;;;;;;32.00;29.67;;;;;10.76;98.01;98213.63;6281722;20;3596079;-58
2022/11/17 10:59:56;;;;;;;;;29.50;26.00;;;;;10.60;97.66;98208.72;6313262;20;2849231;-58
2022/11/17 11:02:29;;;;;;;;;29.00;24.00;;;;;11.08;96.57;98215.34;6282112;20;2845069;-58
2022/11/17 11:05:17;;;;;;;;;36.67;26.00;;;;;11.07;96.38;98222.56;6289403;20;3607997;-58
2022/11/17 11:07:47;;;;;;;;;47.67;37.00;;;;;11.50;96.13;98220.63;6280975;20;2856609;-58
2022/11/17 11:10:42;;;;;;;;;22.67;21.67;;;;;11.55;94.59;98218.38;6320301;20;3574197;-58
2022/11/17 11:13:23;;;;;;;;;29.67;27.00;;;;;11.85;93.85;98218.31;6281858;20;2850362;-58
2022/11/17 11:15:52;;;;;;;;;37.00;33.00;;;;;11.64;93.26;98218.41;6316662;20;3586713;-57
2022/11/17 11:18:22;;;;;;;;;32.00;27.33;;;;;11.69;93.46;98218.00;6286617;20;3606504;-58
2022/11/17 11:21:06;;;;;;;;;30.67;27.67;;;;;11.83;92.26;98219.44;6313513;20;2850314;-58
2022/11/17 11:23:49;;;;;;;;;25.50;20.50;;;;;11.68;91.69;98220.81;6317701;20;3457660;-58
2022/11/17 11:27:09;;;;;;;;;23.50;20.00;;;;;11.55;91.92;98227.28;6312844;20;2837811;-58
2022/11/17 11:30:04;;;;;;;;;27.33;22.00;;;;;11.35;91.31;98222.84;6283349;20;2842987;-58
2022/11/17 11:33:34;;;;;;;;;25.00;23.00;;;;;11.48;91.31;98226.16;6310320;20;2848329;-58
2022/11/17 11:36:23;;;;;;;;;27.50;23.00;;;;;11.05;93.08;98226.38;6285252;20;2841914;-58
2022/11/17 11:39:19;;;;;;;;;25.00;23.33;;;;;11.29;93.00;98218.84;6283004;20;2852534;-56
2022/11/17 11:42:35;;;;;;;;;21.50;18.50;;;;;11.39;91.99;98216.19;6308687;20;2833823;-58
2022/11/17 11:45:41;;;;;;;;;25.50;22.00;;;;;11.34;92.16;98207.69;6284138;20;2840029;-57
2022/11/17 11:48:26;;;;;;;;;27.67;25.00;;;;;11.25;91.13;98213.88;6280969;20;2853363;-57
2022/11/17 11:51:21;;;;;;;;;26.33;23.33;;;;;11.58;90.56;98220.78;6317643;20;3588894;-58
2022/11/17 11:54:15;;;;;;;;;20.00;18.00;;;;;11.55;90.60;98219.22;6278520;20;2715971;-58
2022/11/17 11:56:47;;;;;;;;;17.00;17.00;;;;;11.56;92.00;98222.78;6307495;20;2823344;-58
2022/11/17 11:59:48;;;;;;;;;23.00;21.00;;;;;11.56;90.90;98223.63;6283649;20;2831522;-58
2022/11/17 12:02:47;;;;;;;;;25.00;20.50;;;;;11.37;91.66;98229.78;6282924;20;2841940;-58
2022/11/17 12:06:38;;;;;;;;;21.50;20.00;;;;;11.35;92.00;98230.91;6282149;20;2848198;-58